DAOO/ORN METAR and TAF weather

Enter ICAO airport designator
Station Type Date Time Source
DAOO METAR 2018/12/12 16:00 UTC NOAA

DAOO 121600Z 23012KT 9999 FEW016 SCT026 18/10 Q1020


Station Type Date Time Source
DAOO Decoded METAR 2018/12/12 16:00 UTC NOAA

Oran / Es Senia, Algeria (DAOO) 35-38N 000-36W 90M
Dec 12, 2018 - 11:00 AM EST / 2018.12.12 1600 UTC
Wind: from the SW (230 degrees) at 14 MPH (12 KT):0
Visibility: greater than 7 mile(s):0
Sky conditions: partly cloudy
Temperature: 64 F (18 C)
Dew Point: 50 F (10 C)
Relative Humidity: 59%
Pressure (altimeter): 30.12 in. Hg (1020 hPa)
ob: DAOO 121600Z 23012KT 9999 FEW016 SCT026 18/10 Q1020
cycle: 16

Station Type Date Time Source
DAOO TAF 2018/12/12 12:33 UTC NOAA

TAF DAOO 121100Z 1212/1312 26012KT 9999 FEW023
TEMPO 1301/1304 24016G33KT 9999 SCT023
BECMG 1304/1307 26015KT 9999 FEW026 SCT233


Example: see airport list